Time;durP1;ratioP1;P1;durP2;ratioP2;P2;SDS_P1;SDS_P2;PMS_P1;PMS_P2;Temp;Humidity;BMP_temperature;BMP_pressure;BME280_temperature;BME280_humidity;BME280_pressure;Samples;Min_cycle;Max_cycle;Signal;HPM_P1;HPM_P2
2021/07/04 00:00:59;;;;;;;;;;;;;;;27.85;38.36;100049.06;5076632;28;1965;-41
2021/07/04 00:03:24;;;;;;;;;;;;;;;27.93;37.82;100048.88;5077231;28;756;-40
2021/07/04 00:05:50;;;;;;;;;;;;;;;27.94;37.90;100055.97;5077344;28;729;-43
2021/07/04 00:08:19;;;;;;;;;;;;;;;27.96;38.00;100047.66;5076720;28;740;-41
2021/07/04 00:10:49;;;;;;;;;;;;;;;27.93;38.18;100053.44;5077220;28;759;-38
2021/07/04 00:13:14;;;;;;;;;;;;;;;27.89;37.85;100049.50;5077281;28;834;-40
2021/07/04 00:15:40;;;;;;;;;;;;;;;27.82;38.22;100049.47;5076652;28;954;-42
2021/07/04 00:18:09;;;;;;;;;;;;;;;27.83;38.20;100053.84;5076942;28;728;-41
2021/07/04 00:20:34;;;;;;;;;;;;;;;27.86;38.34;100040.75;5077005;28;1898;-42
2021/07/04 00:23:00;;;;;;;;;;;;;;;27.93;38.08;100048.88;5076790;28;740;-39
2021/07/04 00:25:25;;;;;;;;;;;;;;;27.87;38.10;100053.25;5076888;28;719;-41
2021/07/04 00:27:50;;;;;;;;;;;;;;;27.85;38.39;100047.22;5076877;28;760;-43
2021/07/04 00:30:16;;;;;;;;;;;;;;;27.93;37.78;100048.88;5075927;28;962;-41
2021/07/04 00:32:42;;;;;;;;;;;;;;;27.97;37.89;100054.72;5076575;28;740;-41
2021/07/04 00:35:07;;;;;;;;;;;;;;;27.92;37.74;100057.19;5076724;28;832;-41
2021/07/04 00:37:33;;;;;;;;;;;;;;;27.87;37.76;100047.00;5076575;28;728;-41
2021/07/04 00:39:58;;;;;;;;;;;;;;;27.84;37.71;100048.22;5058622;28;772;-41
2021/07/04 00:42:23;;;;;;;;;;;;;;;27.75;37.95;100057.56;5076827;28;1906;-37
2021/07/04 00:44:49;;;;;;;;;;;;;;;27.78;38.06;100064.47;5076313;28;947;-41
2021/07/04 00:47:14;;;;;;;;;;;;;;;27.82;37.83;100071.94;5076382;28;1094;-38
2021/07/04 00:49:39;;;;;;;;;;;;;;;27.78;37.95;100065.28;5076546;28;772;-39
2021/07/04 00:52:04;;;;;;;;;;;;;;;27.87;37.44;100068.63;5076678;28;862;-41
2021/07/04 00:54:30;;;;;;;;;;;;;;;27.75;38.03;100060.28;5076720;28;748;-37
2021/07/04 00:56:55;;;;;;;;;;;;;;;27.71;37.91;100072.53;5058852;28;752;-41
2021/07/04 00:59:21;;;;;;;;;;;;;;;27.60;38.39;100069.34;5075869;28;1025;-40
2021/07/04 01:01:47;;;;;;;;;;;;;;;27.59;38.45;100064.97;5075914;28;1913;-40
2021/07/04 01:04:12;;;;;;;;;;;;;;;27.72;38.24;100066.94;5076776;28;799;-41
2021/07/04 01:06:38;;;;;;;;;;;;;;;27.65;38.39;100068.75;5076763;28;724;-41
2021/07/04 01:09:03;;;;;;;;;;;;;;;27.67;38.06;100071.25;5076105;28;819;-40
2021/07/04 01:11:28;;;;;;;;;;;;;;;27.69;38.20;100070.03;5076669;28;759;-39
2021/07/04 01:13:54;;;;;;;;;;;;;;;27.80;38.26;100073.16;5075916;28;1075;-41
2021/07/04 01:16:19;;;;;;;;;;;;;;;27.82;37.95;100077.34;5058323;28;894;-40
2021/07/04 01:18:44;;;;;;;;;;;;;;;27.83;38.35;100068.19;5058452;28;779;-39
2021/07/04 01:21:10;;;;;;;;;;;;;;;27.82;38.36;100068.41;5076213;28;1901;-41
2021/07/04 01:23:35;;;;;;;;;;;;;;;27.85;38.45;100062.59;5058454;28;752;-42
2021/07/04 01:26:00;;;;;;;;;;;;;;;27.93;38.17;100065.09;5076421;28;760;-41
2021/07/04 01:28:25;;;;;;;;;;;;;;;28.01;38.21;100069.47;5076007;28;890;-42
2021/07/04 01:30:52;;;;;;;;;;;;;;;27.94;38.60;100066.78;5075704;28;979;-41
2021/07/04 01:33:17;;;;;;;;;;;;;;;28.05;38.42;100061.78;5076610;28;762;-43
2021/07/04 01:35:43;;;;;;;;;;;;;;;28.02;38.70;100062.19;5075905;28;1649;-41
2021/07/04 01:38:08;;;;;;;;;;;;;;;28.00;38.66;100065.09;5075975;28;724;-43
2021/07/04 01:40:34;;;;;;;;;;;;;;;28.01;38.75;100068.66;5076300;28;768;-40
2021/07/04 01:42:59;;;;;;;;;;;;;;;27.99;38.77;100068.84;5076794;28;1901;-41
2021/07/04 01:45:24;;;;;;;;;;;;;;;28.06;38.76;100074.28;5079564;28;947;-39
2021/07/04 01:47:50;;;;;;;;;;;;;;;27.99;38.98;100075.06;5079447;28;1166;-41
2021/07/04 01:50:17;;;;;;;;;;;;;;;28.01;39.04;100072.16;5061414;28;918;-40
2021/07/04 01:52:42;;;;;;;;;;;;;;;27.94;39.19;100074.88;5079643;28;799;-41
2021/07/04 01:55:08;;;;;;;;;;;;;;;27.98;38.71;100076.13;5079685;28;832;-40
2021/07/04 01:57:34;;;;;;;;;;;;;;;28.05;38.80;100069.88;5079833;28;795;-41
2021/07/04 02:00:00;;;;;;;;;;;;;;;28.12;38.61;100078.84;5078495;28;1021;-41
2021/07/04 02:02:25;;;;;;;;;;;;;;;28.07;38.68;100076.78;5079266;28;1901;-40
2021/07/04 02:04:51;;;;;;;;;;;;;;;28.06;38.74;100083.19;5079772;28;831;-40
2021/07/04 02:07:16;;;;;;;;;;;;;;;28.08;38.79;100086.53;5079295;28;867;-41
2021/07/04 02:09:42;;;;;;;;;;;;;;;28.02;38.47;100084.66;5078893;28;900;-40
2021/07/04 02:12:08;;;;;;;;;;;;;;;27.97;38.64;100095.25;5079582;28;796;-39
2021/07/04 02:14:33;;;;;;;;;;;;;;;28.03;38.53;100086.31;5078667;28;959;-41
2021/07/04 02:16:58;;;;;;;;;;;;;;;28.08;38.33;100089.25;5079399;28;804;-41
2021/07/04 02:19:29;;;;;;;;;;;;;;;28.04;38.32;100092.56;5060935;28;1430;-41
2021/07/04 02:21:55;;;;;;;;;;;;;;;28.05;38.46;100083.41;5078938;28;1968;-43
2021/07/04 02:24:21;;;;;;;;;;;;;;;28.03;38.71;100086.31;5078959;28;910;-40
2021/07/04 02:26:46;;;;;;;;;;;;;;;27.99;38.77;100085.88;5079356;28;760;-41
2021/07/04 02:29:11;;;;;;;;;;;;;;;27.96;38.87;100085.50;5078352;28;970;-40
2021/07/04 02:31:37;;;;;;;;;;;;;;;28.00;38.54;100084.03;5079271;28;764;-40
2021/07/04 02:34:02;;;;;;;;;;;;;;;28.06;38.48;100088.59;5078887;28;839;-39
2021/07/04 02:36:27;;;;;;;;;;;;;;;28.01;38.60;100090.28;5078659;28;875;-42
2021/07/04 02:38:52;;;;;;;;;;;;;;;27.97;38.60;100092.56;5079204;28;813;-42
2021/07/04 02:41:18;;;;;;;;;;;;;;;27.99;38.12;100098.59;5078839;28;1972;-41
2021/07/04 02:43:43;;;;;;;;;;;;;;;27.99;38.17;100094.00;5078254;28;1021;-40
2021/07/04 02:46:08;;;;;;;;;;;;;;;27.96;38.28;100094.41;5078936;28;962;-40
2021/07/04 02:48:34;;;;;;;;;;;;;;;27.92;38.27;100090.47;5078681;28;1060;-43
2021/07/04 02:50:59;;;;;;;;;;;;;;;27.96;38.60;100097.13;5059571;28;824;-43
2021/07/04 02:53:24;;;;;;;;;;;;;;;28.04;38.47;100100.69;5078673;28;792;-42
2021/07/04 02:55:50;;;;;;;;;;;;;;;28.10;38.34;100102.56;5078835;28;779;-40
2021/07/04 02:58:15;;;;;;;;;;;;;;;28.04;38.69;100104.22;5078539;28;771;-42
2021/07/04 03:00:41;;;;;;;;;;;;;;;27.84;38.95;100101.47;5077900;28;1938;-39
2021/07/04 03:03:06;;;;;;;;;;;;;;;27.41;39.41;100108.75;5078423;28;795;-40
2021/07/04 03:05:31;;;;;;;;;;;;;;;27.26;39.58;100108.88;5078453;28;852;-43
2021/07/04 03:07:57;;;;;;;;;;;;;;;27.04;39.75;100113.53;5078392;28;780;-43
2021/07/04 03:10:22;;;;;;;;;;;;;;;27.01;39.35;100117.44;5078133;28;819;-41
2021/07/04 03:12:47;;;;;;;;;;;;;;;27.04;39.10;100127.88;5060547;28;1316;-42
2021/07/04 03:15:13;;;;;;;;;;;;;;;27.49;37.79;100132.88;5077266;28;888;-38
2021/07/04 03:17:38;;;;;;;;;;;;;;;27.55;37.63;100130.41;5078216;28;752;-38
2021/07/04 03:20:04;;;;;;;;;;;;;;;27.40;38.04;100131.41;5077797;28;514;-37
2021/07/04 03:22:30;;;;;;;;;;;;;;;27.30;38.11;100128.22;5077669;28;1893;-37
2021/07/04 03:24:57;;;;;;;;;;;;;;;27.13;38.47;100136.63;5077979;28;818;-37
2021/07/04 03:27:22;;;;;;;;;;;;;;;27.13;38.42;100131.25;5077911;28;893;-39
2021/07/04 03:29:47;;;;;;;;;;;;;;;26.83;39.14;100132.25;5077203;28;943;-39
2021/07/04 03:32:13;;;;;;;;;;;;;;;26.86;38.86;100137.25;5078247;28;779;-39
2021/07/04 03:34:38;;;;;;;;;;;;;;;26.78;39.38;100137.41;5077917;28;816;-39
2021/07/04 03:37:03;;;;;;;;;;;;;;;26.69;39.16;100149.38;5077418;28;747;-40
2021/07/04 03:39:28;;;;;;;;;;;;;;;26.53;39.91;100144.06;5077522;28;807;-39
2021/07/04 03:41:54;;;;;;;;;;;;;;;26.42;40.11;100144.59;5077930;28;1890;-40
2021/07/04 03:44:22;;;;;;;;;;;;;;;26.45;40.30;100146.91;5076874;28;1013;-39
2021/07/04 03:46:47;;;;;;;;;;;;;;;26.44;39.95;100145.25;5077454;28;812;-37
2021/07/04 03:49:13;;;;;;;;;;;;;;;26.45;40.27;100155.00;5077364;28;1083;-37
2021/07/04 03:51:38;;;;;;;;;;;;;;;26.38;40.30;100146.00;5077015;28;752;-36
2021/07/04 03:54:03;;;;;;;;;;;;;;;26.40;40.27;100150.19;5058423;28;891;-39
2021/07/04 03:56:28;;;;;;;;;;;;;;;26.31;40.99;100148.59;5077585;28;744;-40
2021/07/04 03:58:54;;;;;;;;;;;;;;;26.38;40.54;100144.13;5076518;28;1006;-39
2021/07/04 04:01:20;;;;;;;;;;;;;;;26.36;40.87;100148.06;5077702;28;1902;-47
2021/07/04 04:03:46;;;;;;;;;;;;;;;26.41;40.74;100137.50;5077093;28;863;-43
2021/07/04 04:06:11;;;;;;;;;;;;;;;26.31;41.08;100142.38;5076260;28;752;-46
2021/07/04 04:08:37;;;;;;;;;;;;;;;26.32;41.28;100138.66;5077253;28;764;-40
2021/07/04 04:11:04;;;;;;;;;;;;;;;26.49;40.92;100131.97;5077097;28;832;-40
2021/07/04 04:13:29;;;;;;;;;;;;;;;26.51;40.71;100129.09;5076861;28;752;-38
2021/07/04 04:15:54;;;;;;;;;;;;;;;26.64;40.92;100139.19;5077062;28;1147;-40
2021/07/04 04:18:20;;;;;;;;;;;;;;;26.77;40.58;100138.44;5076938;28;835;-41
2021/07/04 04:20:45;;;;;;;;;;;;;;;26.88;40.55;100135.22;5076427;28;1894;-45
2021/07/04 04:23:10;;;;;;;;;;;;;;;26.93;40.69;100139.16;5076025;28;1096;-39
2021/07/04 04:25:35;;;;;;;;;;;;;;;27.10;39.87;100134.34;5077061;28;779;-39
2021/07/04 04:28:04;;;;;;;;;;;;;;;27.24;39.63;100127.16;5076563;28;883;-41
2021/07/04 04:30:30;;;;;;;;;;;;;;;27.21;39.98;100125.69;5076499;28;950;-37
2021/07/04 04:32:55;;;;;;;;;;;;;;;27.20;39.66;100139.38;5076641;28;739;-40
2021/07/04 04:35:20;;;;;;;;;;;;;;;27.16;40.19;100140.81;5076838;28;807;-41
2021/07/04 04:37:46;;;;;;;;;;;;;;;27.19;39.58;100135.03;5076858;28;721;-42
2021/07/04 04:40:11;;;;;;;;;;;;;;;27.20;39.83;100129.44;5076675;28;803;-39
2021/07/04 04:42:37;;;;;;;;;;;;;;;27.32;39.36;100136.97;5076298;28;1905;-39
2021/07/04 04:45:02;;;;;;;;;;;;;;;27.33;39.86;100133.22;5076098;28;962;-46
2021/07/04 04:47:27;;;;;;;;;;;;;;;27.32;39.99;100136.97;5076350;28;1131;-40
2021/07/04 04:49:53;;;;;;;;;;;;;;;27.26;40.52;100131.31;5076026;28;836;-46
2021/07/04 04:52:18;;;;;;;;;;;;;;;27.32;40.72;100132.41;5076405;28;855;-45
2021/07/04 04:54:43;;;;;;;;;;;;;;;27.40;40.35;100134.09;5076280;28;766;-40
2021/07/04 04:57:09;;;;;;;;;;;;;;;27.57;40.51;100140.00;5076572;28;789;-42
2021/07/04 04:59:38;;;;;;;;;;;;;;;27.59;40.25;100137.09;5057018;28;2310;-39
2021/07/04 05:02:03;;;;;;;;;;;;;;;27.61;40.47;100146.66;5076302;28;1906;-36
2021/07/04 05:04:29;;;;;;;;;;;;;;;27.61;40.46;100151.25;5058357;28;896;-40
2021/07/04 05:06:54;;;;;;;;;;;;;;;27.68;40.33;100144.03;5076742;28;815;-42
2021/07/04 05:09:19;;;;;;;;;;;;;;;27.75;40.30;100142.19;5076433;28;1019;-37
2021/07/04 05:11:45;;;;;;;;;;;;;;;27.88;40.26;100135.16;5076197;28;764;-38
2021/07/04 05:14:11;;;;;;;;;;;;;;;27.97;40.39;100135.81;5075893;28;1104;-42
2021/07/04 05:16:37;;;;;;;;;;;;;;;28.08;40.14;100135.22;5076258;28;822;-37
2021/07/04 05:19:05;;;;;;;;;;;;;;;28.09;39.95;100127.94;5079898;28;553;-42
2021/07/04 05:21:31;;;;;;;;;;;;;;;28.17;39.97;100133.16;5080173;28;1973;-41
2021/07/04 05:23:57;;;;;;;;;;;;;;;28.13;40.25;100134.59;5080234;28;751;-43
2021/07/04 05:26:22;;;;;;;;;;;;;;;28.22;40.10;100133.38;5080093;28;874;-42
2021/07/04 05:28:47;;;;;;;;;;;;;;;28.23;39.92;100139.59;5079582;28;999;-43
2021/07/04 05:31:12;;;;;;;;;;;;;;;28.19;40.40;100141.91;5080469;28;758;-43
2021/07/04 05:33:38;;;;;;;;;;;;;;;28.24;40.64;100135.88;5079767;28;811;-41
2021/07/04 05:36:03;;;;;;;;;;;;;;;28.34;40.28;100138.19;5079795;28;803;-42
2021/07/04 05:38:34;;;;;;;;;;;;;;;28.22;40.69;100132.53;5079806;28;898;-43
2021/07/04 05:40:59;;;;;;;;;;;;;;;28.28;40.61;100139.81;5079896;28;1965;-42
2021/07/04 05:43:24;;;;;;;;;;;;;;;28.38;40.15;100138.63;5079426;28;760;-40
2021/07/04 05:45:50;;;;;;;;;;;;;;;28.42;40.32;100142.56;5079395;28;1001;-43
2021/07/04 05:48:15;;;;;;;;;;;;;;;28.41;40.24;100146.31;5061806;28;1064;-43
2021/07/04 05:50:40;;;;;;;;;;;;;;;28.46;40.36;100149.25;5079501;28;755;-43
2021/07/04 05:53:06;;;;;;;;;;;;;;;28.49;40.28;100151.53;5079778;28;767;-43
2021/07/04 05:55:31;;;;;;;;;;;;;;;28.50;40.48;100152.34;5079329;28;795;-43
2021/07/04 05:57:56;;;;;;;;;;;;;;;28.48;40.40;100149.84;5079251;28;794;-43
2021/07/04 06:00:22;;;;;;;;;;;;;;;28.38;40.85;100146.75;5079254;28;967;-43
2021/07/04 06:02:47;;;;;;;;;;;;;;;28.46;40.69;100150.06;5079364;28;1902;-43
2021/07/04 06:05:17;;;;;;;;;;;;;;;28.45;40.65;100150.25;5079283;28;855;-43
2021/07/04 06:07:43;;;;;;;;;;;;;;;28.47;40.73;100146.34;5079668;28;791;-43
2021/07/04 06:10:08;;;;;;;;;;;;;;;28.61;40.37;100149.03;5079230;28;736;-43
2021/07/04 06:12:33;;;;;;;;;;;;;;;28.64;40.28;100147.78;5079086;28;836;-43
2021/07/04 06:14:59;;;;;;;;;;;;;;;28.69;40.33;100146.13;5078866;28;990;-43
2021/07/04 06:17:24;;;;;;;;;;;;;;;28.67;40.28;100139.25;5079256;28;796;-42
2021/07/04 06:19:49;;;;;;;;;;;;;;;28.73;40.45;100144.66;5078922;28;752;-41
2021/07/04 06:22:14;;;;;;;;;;;;;;;28.67;40.21;100139.25;5079354;28;1969;-42
2021/07/04 06:24:40;;;;;;;;;;;;;;;28.75;40.16;100135.47;5078945;28;760;-42
2021/07/04 06:27:05;;;;;;;;;;;;;;;28.83;40.13;100133.41;5078980;28;763;-43
2021/07/04 06:29:30;;;;;;;;;;;;;;;28.84;40.45;100139.66;5077792;28;1017;-43
2021/07/04 06:31:56;;;;;;;;;;;;;;;28.76;40.32;100140.69;5078891;28;728;-43
2021/07/04 06:34:21;;;;;;;;;;;;;;;28.78;40.24;100133.19;5078722;28;765;-43
2021/07/04 06:36:46;;;;;;;;;;;;;;;28.82;40.47;100139.88;5079169;28;759;-43
2021/07/04 06:39:12;;;;;;;;;;;;;;;28.90;40.20;100144.22;5078696;28;831;-43
2021/07/04 06:41:37;;;;;;;;;;;;;;;28.89;40.49;100139.03;5078568;28;1898;-43
2021/07/04 06:44:02;;;;;;;;;;;;;;;28.95;40.13;100135.47;5078219;28;911;-43
2021/07/04 06:46:28;;;;;;;;;;;;;;;29.06;40.10;100131.34;5078788;28;752;-43
2021/07/04 06:48:53;;;;;;;;;;;;;;;28.98;40.22;100132.38;5078386;28;1123;-43
2021/07/04 06:51:18;;;;;;;;;;;;;;;28.95;40.18;100127.34;5078281;28;753;-43
2021/07/04 06:53:44;;;;;;;;;;;;;;;29.06;40.02;100125.91;5078541;28;756;-43
2021/07/04 06:56:09;;;;;;;;;;;;;;;29.09;39.96;100126.31;5078638;28;783;-43
2021/07/04 06:58:34;;;;;;;;;;;;;;;29.08;40.01;100119.22;5078366;28;831;-41
2021/07/04 07:01:00;;;;;;;;;;;;;;;29.07;39.99;100116.75;5078091;28;1913;-43
2021/07/04 07:03:25;;;;;;;;;;;;;;;29.13;39.89;100106.94;5078203;28;803;-41
2021/07/04 07:05:50;;;;;;;;;;;;;;;29.13;40.01;100112.38;5078213;28;871;-43
2021/07/04 07:08:16;;;;;;;;;;;;;;;29.24;39.83;100110.88;5078687;28;756;-43
2021/07/04 07:10:41;;;;;;;;;;;;;;;29.21;39.95;100118.38;5078033;28;775;-42
2021/07/04 07:13:06;;;;;;;;;;;;;;;29.27;39.94;100119.41;5078266;28;831;-42
2021/07/04 07:15:31;;;;;;;;;;;;;;;29.28;39.83;100123.75;5077619;28;954;-42
2021/07/04 07:17:57;;;;;;;;;;;;;;;29.32;39.69;100122.31;5078081;28;787;-42
2021/07/04 07:20:22;;;;;;;;;;;;;;;29.32;39.85;100119.59;5078168;28;799;-43
2021/07/04 07:22:47;;;;;;;;;;;;;;;29.32;39.75;100114.19;5078154;28;1944;-43
2021/07/04 07:25:13;;;;;;;;;;;;;;;29.42;39.46;100111.00;5077595;28;803;-42
2021/07/04 07:27:38;;;;;;;;;;;;;;;29.39;39.66;100118.72;5077555;28;768;-42
2021/07/04 07:30:04;;;;;;;;;;;;;;;29.41;39.57;100122.06;5077587;28;951;-42
2021/07/04 07:32:29;;;;;;;;;;;;;;;29.51;39.55;100121.59;5078160;28;757;-42
2021/07/04 07:34:54;;;;;;;;;;;;;;;29.43;39.53;100117.25;5078028;28;748;-42
2021/07/04 07:37:22;;;;;;;;;;;;;;;29.42;39.65;100110.16;5077930;28;807;-42
2021/07/04 07:39:47;;;;;;;;;;;;;;;29.46;39.62;100114.13;5076751;28;828;-42
2021/07/04 07:42:13;;;;;;;;;;;;;;;29.51;39.70;100105.34;5077096;28;1968;-42
2021/07/04 07:44:38;;;;;;;;;;;;;;;29.48;39.53;100108.50;5077099;28;911;-41
2021/07/04 07:47:04;;;;;;;;;;;;;;;29.55;39.50;100104.69;5077060;28;1001;-41
2021/07/04 07:49:29;;;;;;;;;;;;;;;29.61;39.42;100102.22;5077497;28;728;-38
2021/07/04 07:51:54;;;;;;;;;;;;;;;29.53;39.40;100112.22;5077325;28;796;-41
2021/07/04 07:54:20;;;;;;;;;;;;;;;29.39;39.71;100106.03;5076880;28;740;-41
2021/07/04 07:56:45;;;;;;;;;;;;;;;29.33;39.54;100096.03;5077337;28;815;-41
2021/07/04 07:59:10;;;;;;;;;;;;;;;29.25;40.08;100097.09;5077163;28;970;-40
2021/07/04 08:01:36;;;;;;;;;;;;;;;29.26;39.91;100093.34;5076670;28;1911;-40
2021/07/04 08:04:01;;;;;;;;;;;;;;;29.25;40.23;100093.56;5077163;28;839;-42
2021/07/04 08:06:26;;;;;;;;;;;;;;;29.31;40.18;100090.81;5077035;28;748;-34
2021/07/04 08:08:52;;;;;;;;;;;;;;;29.25;40.41;100097.09;5076897;28;756;-38
2021/07/04 08:11:17;;;;;;;;;;;;;;;29.15;40.67;100086.72;5058724;28;823;-38
2021/07/04 08:13:42;;;;;;;;;;;;;;;29.11;40.77;100085.50;5077097;28;1001;-41
2021/07/04 08:16:08;;;;;;;;;;;;;;;29.02;41.04;100087.59;5076752;28;943;-41
2021/07/04 08:18:33;;;;;;;;;;;;;;;28.80;40.71;100098.63;5057846;28;1207;-41
2021/07/04 08:20:58;;;;;;;;;;;;;;;29.06;40.38;100102.34;5076549;28;1894;-41
2021/07/04 08:23:24;;;;;;;;;;;;;;;29.05;40.77;100100.72;5076646;28;803;-42
2021/07/04 08:25:49;;;;;;;;;;;;;;;29.04;41.22;100104.47;5076157;28;839;-38
2021/07/04 08:28:17;;;;;;;;;;;;;;;29.01;41.12;100101.34;5058980;28;799;-41
2021/07/04 08:30:42;;;;;;;;;;;;;;;29.06;41.00;100106.97;5076430;28;994;-40
2021/07/04 08:33:08;;;;;;;;;;;;;;;29.13;41.10;100106.94;5058330;28;1026;-36
2021/07/04 08:35:35;;;;;;;;;;;;;;;29.15;40.75;100110.25;5076232;28;852;-37
2021/07/04 08:38:01;;;;;;;;;;;;;;;29.20;40.62;100110.44;5076373;28;871;-37
2021/07/04 08:40:26;;;;;;;;;;;;;;;29.17;41.25;100113.59;5076368;28;791;-34
2021/07/04 08:42:51;;;;;;;;;;;;;;;29.11;41.07;100114.44;5076550;28;1893;-38
2021/07/04 08:45:16;;;;;;;;;;;;;;;29.18;40.77;100113.38;5076624;28;934;-36
2021/07/04 08:47:42;;;;;;;;;;;;;;;29.18;39.80;100116.09;5076082;28;1103;-35
2021/07/04 08:50:08;;;;;;;;;;;;;;;29.21;40.11;100115.66;5076508;28;804;-36
2021/07/04 08:52:36;;;;;;;;;;;;;;;29.23;40.29;100109.22;5076377;28;811;-34
2021/07/04 08:55:02;;;;;;;;;;;;;;;29.24;40.64;100119.00;5076128;28;840;-36
2021/07/04 08:57:27;;;;;;;;;;;;;;;29.21;40.47;100114.84;5076075;28;803;-37
2021/07/04 08:59:52;;;;;;;;;;;;;;;29.27;40.67;100127.53;5076298;28;970;-35
2021/07/04 09:02:28;;;;;;;;;;;;;;;29.32;40.24;100126.88;5058373;28;1973;-38
2021/07/04 09:05:09;;;;;;;;;;;;;;;29.38;39.35;100147.69;5076174;28;534;-36
2021/07/04 09:07:35;;;;;;;;;;;;;;;29.29;38.22;100130.03;5076588;28;736;-35
2021/07/04 09:10:04;;;;;;;;;;;;;;;29.28;38.47;100136.50;5076082;28;755;-34
2021/07/04 09:12:37;;;;;;;;;;;;;;;29.28;38.85;100133.78;5076492;28;823;-42
2021/07/04 09:15:15;;;;;;;;;;;;;;;29.34;39.04;100138.34;5075823;28;1005;-39
2021/07/04 09:17:44;;;;;;;;;;;;;;;29.36;39.14;100136.25;5075883;28;787;-43
2021/07/04 09:20:11;;;;;;;;;;;;;;;29.24;38.44;100124.41;5076084;28;788;-41
2021/07/04 09:22:40;;;;;;;;;;;;;;;29.22;37.96;100124.63;5076317;28;1957;-40
2021/07/04 09:25:07;;;;;;;;;;;;;;;29.30;37.65;100129.81;5076177;28;796;-41
2021/07/04 09:27:32;;;;;;;;;;;;;;;29.28;38.06;100134.59;5076017;28;840;-43
2021/07/04 09:29:57;;;;;;;;;;;;;;;29.41;38.25;100131.00;5076162;28;962;-37
2021/07/04 09:32:26;;;;;;;;;;;;;;;29.34;38.07;100124.81;5075843;28;823;-46
2021/07/04 09:35:12;;;;;;;;;;;;;;;29.32;38.25;100118.75;5076429;28;775;-37
2021/07/04 09:37:38;;;;;;;;;;;;;;;29.40;38.13;100120.38;5057305;28;800;-40
2021/07/04 09:40:15;;;;;;;;;;;;;;;29.32;38.19;100113.34;5075893;28;756;-44
2021/07/04 09:43:00;;;;;;;;;;;;;;;29.33;37.97;100120.41;5075873;28;1905;-33
2021/07/04 09:45:46;;;;;;;;;;;;;;;29.32;38.09;100116.88;5074868;28;856;-34
2021/07/04 09:48:12;;;;;;;;;;;;;;;29.30;37.80;100102.72;5075443;28;1195;-35
2021/07/04 09:50:38;;;;;;;;;;;;;;;29.41;37.47;100105.81;5058145;28;803;-34
2021/07/04 09:53:03;;;;;;;;;;;;;;;29.39;37.89;100110.59;5057062;28;897;-36
2021/07/04 09:55:29;;;;;;;;;;;;;;;29.39;37.50;100097.06;5076109;28;728;-34
2021/07/04 09:57:58;;;;;;;;;;;;;;;29.36;37.30;100092.06;5075852;28;776;-43
2021/07/04 10:00:24;;;;;;;;;;;;;;;29.29;37.51;100100.22;5075115;28;1017;-44
2021/07/04 10:03:09;;;;;;;;;;;;;;;29.07;37.56;100093.22;5075976;28;1914;-42
2021/07/04 10:05:35;;;;;;;;;;;;;;;29.01;37.80;100087.81;5060871;28;1001;-35
2021/07/04 10:08:00;;;;;;;;;;;;;;;29.04;38.22;100090.94;5060220;28;1109;-40
2021/07/04 10:10:25;;;;;;;;;;;;;;;28.94;38.36;100096.75;5078925;28;812;-33
2021/07/04 10:12:54;;;;;;;;;;;;;;;28.78;38.13;100098.00;5078958;28;847;-35
2021/07/04 10:15:20;;;;;;;;;;;;;;;28.83;38.53;100092.81;5078528;28;1006;-37
2021/07/04 10:17:45;;;;;;;;;;;;;;;28.83;39.16;100089.25;5078823;28;771;-38
2021/07/04 10:20:10;;;;;;;;;;;;;;;28.81;38.84;100094.88;5060667;28;1532;-41
2021/07/04 10:22:36;;;;;;;;;;;;;;;28.63;39.03;100087.41;5061179;28;1967;-43
2021/07/04 10:25:03;;;;;;;;;;;;;;;28.66;39.02;100086.19;5079650;28;808;-45
2021/07/04 10:27:28;;;;;;;;;;;;;;;28.71;39.57;100095.31;5078764;28;740;-41
2021/07/04 10:29:54;;;;;;;;;;;;;;;28.85;38.88;100088.00;5078927;28;962;-45
2021/07/04 10:32:20;;;;;;;;;;;;;;;28.83;38.21;100086.53;5060990;28;957;-44
2021/07/04 10:34:47;;;;;;;;;;;;;;;28.98;37.72;100085.53;5079234;28;803;-44
2021/07/04 10:37:16;;;;;;;;;;;;;;;27.92;38.13;99917.47;5060644;28;1157;-41
2021/07/04 10:39:41;;;;;;;;;;;;;;;28.83;38.48;100073.00;5060539;28;931;-45
2021/07/04 10:42:07;;;;;;;;;;;;;;;28.83;37.81;100062.19;5078868;28;1910;-43
2021/07/04 10:44:36;;;;;;;;;;;;;;;28.76;37.66;100064.91;5078222;28;954;-46
2021/07/04 10:47:02;;;;;;;;;;;;;;;28.80;38.65;100065.31;5078570;28;1192;-41
2021/07/04 10:49:38;;;;;;;;;;;;;;;29.01;37.98;100058.84;5078556;28;739;-36
2021/07/04 10:52:08;;;;;;;;;;;;;;;28.87;37.59;100059.88;5078454;28;764;-44
2021/07/04 10:54:44;;;;;;;;;;;;;;;28.69;38.17;100046.00;5060687;28;1712;-43
2021/07/04 10:57:12;;;;;;;;;;;;;;;28.81;38.38;100045.34;5060656;28;1345;-41
2021/07/04 10:59:56;;;;;;;;;;;;;;;28.93;38.07;100056.31;5059236;28;1385;-53
2021/07/04 11:02:40;;;;;;;;;;;;;;;28.98;37.41;100037.59;5078380;28;1971;-36
2021/07/04 11:05:06;;;;;;;;;;;;;;;28.87;37.41;100043.66;5078617;28;748;-34
2021/07/04 11:07:50;;;;;;;;;;;;;;;28.92;38.04;100046.56;5077939;28;787;-51
2021/07/04 11:10:16;;;;;;;;;;;;;;;28.82;38.02;100038.88;5078340;28;760;-36
2021/07/04 11:12:41;;;;;;;;;;;;;;;28.72;37.92;100044.72;5078115;28;814;-34
2021/07/04 11:15:13;;;;;;;;;;;;;;;28.62;38.38;100045.16;5059511;28;1287;-37
2021/07/04 11:17:57;;;;;;;;;;;;;;;28.73;37.69;100041.81;5059590;28;1175;-34
2021/07/04 11:20:49;;;;;;;;;;;;;;;28.77;37.83;100038.69;5078099;28;787;-39
2021/07/04 11:23:27;;;;;;;;;;;;;;;28.39;38.61;100043.75;5073964;28;1969;-37
2021/07/04 11:25:56;;;;;;;;;;;;;;;28.51;39.15;100057.44;5077851;28;863;-39
2021/07/04 11:28:22;;;;;;;;;;;;;;;28.69;39.14;100050.56;5059666;28;1111;-41
2021/07/04 11:30:48;;;;;;;;;;;;;;;28.71;38.33;100049.31;5077269;28;947;-41
2021/07/04 11:33:42;;;;;;;;;;;;;;;28.67;38.40;100049.94;5077969;28;864;-42
2021/07/04 11:36:16;;;;;;;;;;;;;;;28.41;38.87;100063.28;5077710;28;799;-39
2021/07/04 11:38:49;;;;;;;;;;;;;;;28.75;38.29;100057.84;5076985;28;788;-40
2021/07/04 11:41:21;;;;;;;;;;;;;;;28.89;38.68;100055.94;5077609;28;1898;-38
2021/07/04 11:43:47;;;;;;;;;;;;;;;28.92;38.34;100057.38;5076309;28;911;-43
2021/07/04 11:46:13;;;;;;;;;;;;;;;28.89;37.85;100065.94;5077333;28;867;-42
2021/07/04 11:48:43;;;;;;;;;;;;;;;28.73;38.49;100052.63;5077198;28;1113;-43
2021/07/04 11:51:08;;;;;;;;;;;;;;;28.87;38.54;100057.19;5077064;28;759;-42
2021/07/04 11:53:43;;;;;;;;;;;;;;;28.95;39.00;100063.22;5077430;28;759;-45
2021/07/04 11:56:08;;;;;;;;;;;;;;;29.04;38.37;100068.44;5077531;28;756;-38
2021/07/04 11:58:33;;;;;;;;;;;;;;;29.02;38.00;100059.69;5058691;28;1283;-37
2021/07/04 12:00:59;;;;;;;;;;;;;;;29.03;38.20;100059.47;5076824;28;1914;-42
2021/07/04 12:03:25;;;;;;;;;;;;;;;29.05;38.60;100061.97;5077250;28;751;-43
2021/07/04 12:05:50;;;;;;;;;;;;;;;29.11;38.07;100055.72;5076833;28;784;-42
2021/07/04 12:08:16;;;;;;;;;;;;;;;28.97;38.21;100057.63;5077284;28;783;-43
2021/07/04 12:10:50;;;;;;;;;;;;;;;28.92;38.00;100055.53;5076959;28;807;-44
2021/07/04 12:13:16;;;;;;;;;;;;;;;29.02;38.67;100054.25;5076915;28;795;-42
2021/07/04 12:15:41;;;;;;;;;;;;;;;29.01;38.67;100050.72;5077176;28;950;-41
2021/07/04 12:18:16;;;;;;;;;;;;;;;28.94;38.15;100044.47;5077264;28;746;-44
2021/07/04 12:20:42;;;;;;;;;;;;;;;28.99;37.86;100043.88;5076661;28;764;-45
2021/07/04 12:23:09;;;;;;;;;;;;;;;28.95;38.71;100044.25;5076716;28;1959;-45
2021/07/04 12:25:38;;;;;;;;;;;;;;;29.00;38.74;100042.81;5076672;28;747;-41
2021/07/04 12:28:09;;;;;;;;;;;;;;;28.95;38.72;100041.56;5058355;28;903;-41
2021/07/04 12:30:35;;;;;;;;;;;;;;;28.95;38.61;100040.72;5076215;28;974;-37
2021/07/04 12:33:05;;;;;;;;;;;;;;;29.02;38.78;100032.59;5076473;28;800;-41
2021/07/04 12:35:37;;;;;;;;;;;;;;;29.06;39.00;100031.16;5076623;28;810;-35
2021/07/04 12:38:08;;;;;;;;;;;;;;;29.07;38.37;100025.50;5076814;28;888;-38
2021/07/04 12:40:34;;;;;;;;;;;;;;;28.94;38.25;100029.06;5077014;28;771;-42
2021/07/04 12:43:09;;;;;;;;;;;;;;;28.95;38.43;100027.19;5076499;28;1902;-42
2021/07/04 12:45:35;;;;;;;;;;;;;;;29.05;38.96;100013.22;5076193;28;915;-43
2021/07/04 12:48:01;;;;;;;;;;;;;;;29.05;38.95;100021.34;5076444;28;1100;-45
2021/07/04 12:50:35;;;;;;;;;;;;;;;28.92;38.74;100014.06;5076430;28;720;-46
2021/07/04 12:53:00;;;;;;;;;;;;;;;28.88;38.80;100010.16;5076837;28;807;-47